createdAt,value
2018-12-06T00:00:18.095Z,64.96
2018-12-06T00:02:46.627Z,65.89
2018-12-06T00:05:15.147Z,65.17
2018-12-06T00:07:54.843Z,65.11
2018-12-06T00:10:23.467Z,64.55
2018-12-06T00:12:53.638Z,65.15
2018-12-06T00:15:28.060Z,65.30
2018-12-06T00:17:57.075Z,65.17
2018-12-06T00:20:25.571Z,64.56
2018-12-06T00:22:54.111Z,64.87
2018-12-06T00:25:22.762Z,65.60
2018-12-06T00:27:51.371Z,65.91
2018-12-06T00:30:31.154Z,65.67
2018-12-06T00:32:59.759Z,65.52
2018-12-06T00:35:28.269Z,65.47
2018-12-06T00:37:57.152Z,65.61
2018-12-06T00:40:25.758Z,65.83
2018-12-06T00:42:54.251Z,65.68
2018-12-06T00:45:22.859Z,65.94
2018-12-06T00:47:51.391Z,65.48
2018-12-06T00:50:20.071Z,65.35
2018-12-06T00:52:48.611Z,65.59
2018-12-06T00:55:18.419Z,65.25
2018-12-06T00:57:47.049Z,65.50
2018-12-06T01:00:15.962Z,65.89
2018-12-06T01:02:44.511Z,65.66
2018-12-06T01:05:13.177Z,66.27
2018-12-06T01:07:41.683Z,66.00
2018-12-06T01:10:10.571Z,65.61
2018-12-06T01:12:39.175Z,65.79
2018-12-06T01:15:08.558Z,65.37
2018-12-06T01:17:37.054Z,65.47
2018-12-06T01:20:06.837Z,65.61
2018-12-06T01:22:35.370Z,66.09
2018-12-06T01:25:04.129Z,65.46
2018-12-06T01:27:32.839Z,64.91
2018-12-06T01:30:01.420Z,65.72
2018-12-06T01:32:30.015Z,65.99
2018-12-06T01:34:58.582Z,65.98
2018-12-06T01:37:27.290Z,65.70
2018-12-06T01:39:55.815Z,66.20
2018-12-06T01:42:25.096Z,66.05
2018-12-06T01:44:53.576Z,65.98
2018-12-06T01:47:22.115Z,66.53
2018-12-06T01:49:50.599Z,66.47
2018-12-06T01:52:19.160Z,66.12
2018-12-06T01:54:47.728Z,66.50
2018-12-06T01:57:16.795Z,65.76
2018-12-06T01:59:45.406Z,65.84
2018-12-06T02:02:14.175Z,65.95
2018-12-06T02:04:42.909Z,66.27
2018-12-06T02:07:11.400Z,67.06
2018-12-06T02:09:40.040Z,66.74
2018-12-06T02:12:09.934Z,67.12
2018-12-06T02:14:39.504Z,67.22
2018-12-06T02:17:08.180Z,67.27
2018-12-06T02:19:36.680Z,67.50
2018-12-06T02:22:05.194Z,67.03
2018-12-06T02:24:33.691Z,67.33
2018-12-06T02:27:02.994Z,67.71
2018-12-06T02:29:36.690Z,67.74
2018-12-06T02:32:05.303Z,67.88
2018-12-06T02:34:33.961Z,67.96
2018-12-06T02:37:02.482Z,68.08
2018-12-06T02:39:31.008Z,67.59
2018-12-06T02:41:59.632Z,68.13
2018-12-06T02:44:29.143Z,68.70
2018-12-06T02:46:57.708Z,68.50
2018-12-06T02:49:26.279Z,68.28
2018-12-06T02:51:54.855Z,68.41
2018-12-06T02:54:23.429Z,68.48
2018-12-06T02:56:51.969Z,68.84
2018-12-06T02:59:20.446Z,68.08
2018-12-06T03:01:49.045Z,68.43
2018-12-06T03:04:17.611Z,68.80
2018-12-06T03:06:46.293Z,69.14
2018-12-06T03:09:14.827Z,69.42
2018-12-06T03:11:43.613Z,68.64
2018-12-06T03:14:12.399Z,69.31
2018-12-06T03:16:40.893Z,69.21
2018-12-06T03:19:09.555Z,69.85
2018-12-06T03:21:38.082Z,69.94
2018-12-06T03:24:07.187Z,70.27
2018-12-06T03:26:35.844Z,70.44
2018-12-06T03:29:04.436Z,70.83
2018-12-06T03:31:33.361Z,71.22
2018-12-06T03:34:02.251Z,71.04
2018-12-06T03:36:30.904Z,71.15
2018-12-06T03:38:59.479Z,71.02
2018-12-06T03:41:28.094Z,71.70
2018-12-06T03:43:56.763Z,70.98
2018-12-06T03:46:25.259Z,71.43
2018-12-06T03:48:54.508Z,71.65
2018-12-06T03:51:23.172Z,71.26
2018-12-06T03:53:51.662Z,71.13
2018-12-06T03:56:20.321Z,71.60
2018-12-06T03:58:48.833Z,71.74
2018-12-06T04:01:17.330Z,72.09
2018-12-06T04:03:46.019Z,72.61
2018-12-06T04:06:14.742Z,72.56
2018-12-06T04:08:43.264Z,72.87
2018-12-06T04:11:11.915Z,72.98
2018-12-06T04:13:40.418Z,73.21
2018-12-06T04:16:08.970Z,73.23
2018-12-06T04:18:37.628Z,73.31
2018-12-06T04:21:06.279Z,72.89
2018-12-06T04:23:34.754Z,73.36
2018-12-06T04:26:03.315Z,73.43
2018-12-06T04:28:31.872Z,74.20
2018-12-06T04:31:00.491Z,73.63
2018-12-06T04:33:29.075Z,74.19
2018-12-06T04:35:57.690Z,74.10
2018-12-06T04:38:26.304Z,74.12
2018-12-06T04:40:55.724Z,74.78
2018-12-06T04:43:24.253Z,74.78
2018-12-06T04:45:54.310Z,75.34
2018-12-06T04:48:23.231Z,75.65
2018-12-06T04:50:52.931Z,75.84
2018-12-06T04:53:21.444Z,74.89
2018-12-06T04:55:49.984Z,76.06
2018-12-06T04:58:18.467Z,75.84
2018-12-06T05:00:47.053Z,75.60
2018-12-06T05:03:15.648Z,75.65
2018-12-06T05:05:44.799Z,75.59
2018-12-06T05:08:13.406Z,75.10
2018-12-06T05:10:42.024Z,75.16
2018-12-06T05:13:10.766Z,75.85
2018-12-06T05:15:39.479Z,76.10
2018-12-06T05:18:08.058Z,76.17
2018-12-06T05:20:36.575Z,76.15
2018-12-06T05:23:05.083Z,76.51
2018-12-06T05:25:33.638Z,76.76
2018-12-06T05:28:03.016Z,77.73
2018-12-06T05:30:31.552Z,78.00
2018-12-06T05:33:00.097Z,77.58
2018-12-06T05:35:29.452Z,77.82
2018-12-06T05:37:57.929Z,77.49
2018-12-06T05:40:26.500Z,77.90
2018-12-06T05:42:55.140Z,78.03
2018-12-06T05:45:23.710Z,77.51
2018-12-06T05:47:52.260Z,77.48
2018-12-06T05:50:21.012Z,77.59
2018-12-06T05:52:50.487Z,77.92
2018-12-06T05:55:19.753Z,77.68
2018-12-06T05:57:49.264Z,77.40
2018-12-06T06:00:19.422Z,77.33
2018-12-06T06:02:49.602Z,77.74
2018-12-06T06:05:20.027Z,77.92
2018-12-06T06:07:49.343Z,77.74
2018-12-06T06:10:19.881Z,78.18
2018-12-06T06:12:49.640Z,78.45
2018-12-06T06:15:18.458Z,78.27
2018-12-06T06:17:47.405Z,78.12
2018-12-06T06:20:16.431Z,77.73
2018-12-06T06:22:45.810Z,78.12
2018-12-06T06:25:14.811Z,78.66
2018-12-06T06:27:43.961Z,78.77
2018-12-06T06:30:13.132Z,78.28
2018-12-06T06:32:41.752Z,77.66
2018-12-06T06:35:10.487Z,78.24
2018-12-06T06:37:39.558Z,78.07
2018-12-06T06:40:08.733Z,77.58
2018-12-06T06:42:37.390Z,78.43
2018-12-06T06:45:07.958Z,77.58
2018-12-06T06:47:36.523Z,77.91
2018-12-06T06:50:07.056Z,78.14
2018-12-06T06:52:36.191Z,77.59
2018-12-06T06:55:05.638Z,77.87
2018-12-06T06:57:34.800Z,78.24
2018-12-06T07:00:04.571Z,77.81
2018-12-06T07:02:33.207Z,77.64
2018-12-06T07:05:02.183Z,77.54
2018-12-06T07:07:31.043Z,77.41
2018-12-06T07:10:02.026Z,77.81
2018-12-06T07:12:30.544Z,77.61
2018-12-06T07:14:59.190Z,78.07
2018-12-06T07:17:27.711Z,77.42
2018-12-06T07:19:56.206Z,78.03
2018-12-06T07:22:24.772Z,77.53
2018-12-06T07:24:53.355Z,77.35
2018-12-06T07:27:21.922Z,76.86
2018-12-06T07:29:50.640Z,76.57
2018-12-06T07:32:19.190Z,76.84
2018-12-06T07:34:47.883Z,76.49
2018-12-06T07:37:16.471Z,76.39
2018-12-06T07:39:45.683Z,76.35
2018-12-06T07:42:14.343Z,75.69
2018-12-06T07:44:43.003Z,76.29
2018-12-06T07:47:13.799Z,76.37
2018-12-06T07:49:42.435Z,76.05
2018-12-06T07:52:10.995Z,76.65
2018-12-06T07:54:39.518Z,76.48
2018-12-06T07:57:08.310Z,76.36
2018-12-06T07:59:37.642Z,76.38
2018-12-06T08:02:06.920Z,76.22
2018-12-06T08:04:36.006Z,75.78
2018-12-06T08:07:04.529Z,76.09
2018-12-06T08:09:33.185Z,75.07
2018-12-06T08:12:01.794Z,75.90
2018-12-06T08:14:30.414Z,75.86
2018-12-06T08:16:59.678Z,75.89
2018-12-06T08:19:29.003Z,76.07
2018-12-06T08:21:57.526Z,75.19
2018-12-06T08:24:26.286Z,75.36
2018-12-06T08:26:54.770Z,75.36
2018-12-06T08:29:23.390Z,75.44
2018-12-06T08:31:52.019Z,76.13
2018-12-06T08:34:20.658Z,75.60
2018-12-06T08:36:49.254Z,75.97
2018-12-06T08:39:17.768Z,75.87
2018-12-06T08:41:46.372Z,75.26
2018-12-06T08:44:21.115Z,75.28
2018-12-06T08:46:45.459Z,75.61
2018-12-06T08:49:14.051Z,74.29
2018-12-06T08:51:42.569Z,75.29
2018-12-06T08:54:11.261Z,75.74
2018-12-06T08:56:39.894Z,75.67
2018-12-06T08:59:09.235Z,76.01
2018-12-06T09:01:37.736Z,76.33
2018-12-06T09:04:06.416Z,76.54
2018-12-06T09:06:35.003Z,76.55
2018-12-06T09:09:04.619Z,76.60
2018-12-06T09:11:33.210Z,76.86
2018-12-06T09:14:01.744Z,76.88
2018-12-06T09:16:30.899Z,77.21
2018-12-06T09:18:59.414Z,76.61
2018-12-06T09:21:28.063Z,76.88
2018-12-06T09:23:56.599Z,76.94
2018-12-06T09:26:26.640Z,76.63
2018-12-06T09:28:55.289Z,76.22
2018-12-06T09:31:24.166Z,76.13
2018-12-06T09:34:02.736Z,76.46
2018-12-06T09:36:31.639Z,76.67
2018-12-06T09:39:00.867Z,76.15
2018-12-06T09:41:29.477Z,76.48
2018-12-06T09:43:58.054Z,76.27
2018-12-06T09:46:28.882Z,75.72
2018-12-06T09:48:58.167Z,76.36
2018-12-06T09:51:26.791Z,77.00
2018-12-06T09:53:55.404Z,76.52
2018-12-06T09:56:23.967Z,76.62
2018-12-06T09:58:52.645Z,77.03
2018-12-06T10:01:21.424Z,77.82
2018-12-06T10:03:50.007Z,76.88
2018-12-06T10:06:18.692Z,76.60
2018-12-06T10:08:48.783Z,76.61
2018-12-06T10:11:17.982Z,76.84
2018-12-06T10:13:46.690Z,77.06
2018-12-06T10:16:16.670Z,77.00
2018-12-06T10:18:45.219Z,76.58
2018-12-06T10:21:13.733Z,76.48
2018-12-06T10:23:42.481Z,76.68
2018-12-06T10:26:11.023Z,77.68
2018-12-06T10:28:39.576Z,77.20
2018-12-06T10:31:08.264Z,77.16
2018-12-06T10:33:36.915Z,76.63
2018-12-06T10:36:05.471Z,76.11
2018-12-06T10:38:33.987Z,76.37
2018-12-06T10:41:02.954Z,77.40
2018-12-06T10:43:31.528Z,77.94
2018-12-06T10:46:00.097Z,76.49
2018-12-06T10:48:28.842Z,76.27
2018-12-06T10:51:08.923Z,76.59
2018-12-06T10:53:37.433Z,77.65
2018-12-06T10:56:06.020Z,76.92
2018-12-06T10:58:34.547Z,77.44
2018-12-06T11:01:09.303Z,77.03
2018-12-06T11:03:42.997Z,76.88
2018-12-06T11:06:11.672Z,77.86
2018-12-06T11:08:40.322Z,77.28
2018-12-06T11:11:08.950Z,77.62
2018-12-06T11:13:37.528Z,77.08
2018-12-06T11:16:06.091Z,77.30
2018-12-06T11:18:35.306Z,77.26
2018-12-06T11:21:04.382Z,77.79
2018-12-06T11:23:33.524Z,77.91
2018-12-06T11:26:02.047Z,77.78
2018-12-06T11:28:30.594Z,77.92
2018-12-06T11:30:59.719Z,77.81
2018-12-06T11:33:28.411Z,77.80
2018-12-06T11:35:57.198Z,77.68
2018-12-06T11:38:25.770Z,77.90
2018-12-06T11:40:54.958Z,77.78
2018-12-06T11:43:23.542Z,77.34
2018-12-06T11:45:52.767Z,77.37
2018-12-06T11:48:26.860Z,77.12
2018-12-06T11:50:51.994Z,75.61
2018-12-06T11:53:20.610Z,76.07
2018-12-06T11:55:49.126Z,76.28
2018-12-06T11:58:17.757Z,76.25
2018-12-06T12:00:46.402Z,76.42
2018-12-06T12:03:15.026Z,76.40
2018-12-06T12:05:43.623Z,76.61
2018-12-06T12:08:12.195Z,77.25
2018-12-06T12:10:40.692Z,77.32
2018-12-06T12:13:09.286Z,76.57
2018-12-06T12:15:37.835Z,77.09
2018-12-06T12:18:06.359Z,77.18
2018-12-06T12:20:34.844Z,76.80
2018-12-06T12:23:03.353Z,76.73
2018-12-06T12:25:31.854Z,76.33
2018-12-06T12:28:01.994Z,75.80
2018-12-06T12:30:30.475Z,76.13
2018-12-06T12:32:59.014Z,76.11
2018-12-06T12:35:27.600Z,77.04
2018-12-06T12:37:56.187Z,76.93
2018-12-06T12:40:24.679Z,77.02
2018-12-06T12:42:53.249Z,76.94
2018-12-06T12:45:21.855Z,76.68
2018-12-06T12:47:50.451Z,76.86
2018-12-06T12:50:19.135Z,76.85
2018-12-06T12:52:47.710Z,76.48
2018-12-06T12:55:16.282Z,76.79
2018-12-06T12:57:45.883Z,76.63
2018-12-06T13:00:14.450Z,76.90
2018-12-06T13:02:43.036Z,77.19
2018-12-06T13:05:12.167Z,77.29
2018-12-06T13:07:40.683Z,77.52
2018-12-06T13:10:09.375Z,77.87
2018-12-06T13:12:37.905Z,77.52
2018-12-06T13:15:07.549Z,77.98
2018-12-06T13:17:36.137Z,77.09
2018-12-06T13:20:05.773Z,77.07
2018-12-06T13:22:34.406Z,77.17
2018-12-06T13:25:02.903Z,76.55
2018-12-06T13:27:32.277Z,77.69
2018-12-06T13:30:00.820Z,77.73
2018-12-06T13:32:29.445Z,76.73
2018-12-06T13:34:57.946Z,77.17
2018-12-06T13:37:26.519Z,77.89
2018-12-06T13:39:55.079Z,77.36
2018-12-06T13:42:23.950Z,77.92
2018-12-06T13:44:52.691Z,78.10
2018-12-06T13:47:21.204Z,78.02
2018-12-06T13:49:49.705Z,78.10
2018-12-06T13:52:18.214Z,77.87
2018-12-06T13:54:46.703Z,77.61
2018-12-06T13:57:15.209Z,77.29
2018-12-06T13:59:43.917Z,77.55
2018-12-06T14:02:12.425Z,77.08
2018-12-06T14:04:40.944Z,76.79
2018-12-06T14:07:09.507Z,76.96
2018-12-06T14:09:38.451Z,77.50
2018-12-06T14:12:06.979Z,77.61
2018-12-06T14:14:35.648Z,77.13
2018-12-06T14:17:04.463Z,77.28
2018-12-06T14:19:34.591Z,76.14
2018-12-06T14:22:03.101Z,76.60
2018-12-06T14:24:31.617Z,76.93
2018-12-06T14:27:00.356Z,76.64
2018-12-06T14:29:29.770Z,76.96
2018-12-06T14:31:58.541Z,77.17
2018-12-06T14:34:27.758Z,76.86
2018-12-06T14:37:02.079Z,76.84
2018-12-06T14:39:26.813Z,77.08
2018-12-06T14:41:55.466Z,77.19
2018-12-06T14:44:24.195Z,77.16
2018-12-06T14:46:52.722Z,77.20
2018-12-06T14:49:21.283Z,77.34
2018-12-06T14:51:49.907Z,77.13
2018-12-06T14:54:18.535Z,77.65
2018-12-06T14:56:47.145Z,78.15
2018-12-06T14:59:15.794Z,78.01
2018-12-06T15:01:44.539Z,78.21
2018-12-06T15:04:13.062Z,78.51
2018-12-06T15:06:41.572Z,77.65
2018-12-06T15:09:10.189Z,77.63
2018-12-06T15:11:38.892Z,77.93
2018-12-06T15:14:08.185Z,77.52
2018-12-06T15:16:36.775Z,78.06
2018-12-06T15:19:05.336Z,77.36
2018-12-06T15:21:33.863Z,78.17
2018-12-06T15:24:02.464Z,77.95
2018-12-06T15:26:30.950Z,78.57
2018-12-06T15:29:00.238Z,77.38
2018-12-06T15:31:28.888Z,76.80
2018-12-06T15:33:57.388Z,77.40
2018-12-06T15:36:25.875Z,76.59
2018-12-06T15:38:55.543Z,77.06
2018-12-06T15:41:24.095Z,76.50
2018-12-06T15:43:52.703Z,76.50
2018-12-06T15:46:21.191Z,76.90
2018-12-06T15:48:49.704Z,77.04
2018-12-06T15:51:18.275Z,76.63
2018-12-06T15:53:46.847Z,76.63
2018-12-06T15:56:15.443Z,76.70
2018-12-06T15:58:43.957Z,76.93
2018-12-06T16:01:12.467Z,77.16
2018-12-06T16:03:41.009Z,76.91
2018-12-06T16:06:09.486Z,76.40
2018-12-06T16:08:37.984Z,76.76
2018-12-06T16:11:06.547Z,77.22
2018-12-06T16:13:35.115Z,76.81
2018-12-06T16:16:03.755Z,77.29
2018-12-06T16:18:32.439Z,76.91
2018-12-06T16:21:00.953Z,77.64
2018-12-06T16:23:29.507Z,77.88
2018-12-06T16:25:58.656Z,78.17
2018-12-06T16:28:27.159Z,77.55
2018-12-06T16:30:55.689Z,77.68
2018-12-06T16:33:24.906Z,77.31
2018-12-06T16:35:53.460Z,77.01
2018-12-06T16:38:21.972Z,76.74
2018-12-06T16:40:50.764Z,76.99
2018-12-06T16:43:19.305Z,76.71
2018-12-06T16:45:47.806Z,77.11
2018-12-06T16:48:17.780Z,77.60
2018-12-06T16:50:46.982Z,77.77
2018-12-06T16:53:16.267Z,77.52
2018-12-06T16:55:45.281Z,76.98
2018-12-06T16:58:15.503Z,77.53
2018-12-06T17:00:44.270Z,76.73
2018-12-06T17:03:12.828Z,76.72
2018-12-06T17:05:41.423Z,76.53
2018-12-06T17:08:09.910Z,76.47
2018-12-06T17:10:38.435Z,77.14
2018-12-06T17:13:10.484Z,77.34
2018-12-06T17:15:39.129Z,76.59
2018-12-06T17:18:08.205Z,76.43
2018-12-06T17:20:36.838Z,76.22
2018-12-06T17:23:06.780Z,76.63
2018-12-06T17:25:35.390Z,77.03
2018-12-06T17:28:04.079Z,77.66
2018-12-06T17:30:32.661Z,77.31
2018-12-06T17:33:01.138Z,78.01
2018-12-06T17:35:29.655Z,77.72
2018-12-06T17:37:58.215Z,77.78
2018-12-06T17:40:26.814Z,77.48
2018-12-06T17:42:55.319Z,77.33
2018-12-06T17:45:23.862Z,77.45
2018-12-06T17:47:52.477Z,77.36
2018-12-06T17:50:21.709Z,76.78
2018-12-06T17:52:50.253Z,76.09
2018-12-06T17:55:19.682Z,76.29
2018-12-06T17:57:48.355Z,76.78
2018-12-06T18:00:17.013Z,76.38
2018-12-06T18:02:45.561Z,76.68
2018-12-06T18:06:08.211Z,76.52
2018-12-06T18:08:36.815Z,76.37
2018-12-06T18:11:05.351Z,77.19
2018-12-06T18:13:34.035Z,77.00
2018-12-06T18:16:02.587Z,76.89
2018-12-06T18:18:31.260Z,77.60
2018-12-06T18:21:00.339Z,77.43
2018-12-06T18:23:28.894Z,78.11
2018-12-06T18:25:57.411Z,77.62
2018-12-06T18:28:26.482Z,77.47
2018-12-06T18:30:55.001Z,77.62
2018-12-06T18:33:23.640Z,77.39
2018-12-06T18:35:52.199Z,77.12
2018-12-06T18:38:20.900Z,77.33
2018-12-06T18:40:49.489Z,77.48
2018-12-06T18:43:18.003Z,77.26
2018-12-06T18:45:46.552Z,76.66
2018-12-06T18:48:15.264Z,76.77
2018-12-06T18:50:43.843Z,76.97
2018-12-06T18:53:12.370Z,76.71
2018-12-06T18:55:40.917Z,77.07
2018-12-06T18:58:09.568Z,76.41
2018-12-06T19:00:38.155Z,77.17
2018-12-06T19:03:06.746Z,76.97
2018-12-06T19:05:35.269Z,77.03
2018-12-06T19:08:03.779Z,77.31
2018-12-06T19:10:32.487Z,77.17
2018-12-06T19:13:01.763Z,76.93
2018-12-06T19:15:30.335Z,76.53
2018-12-06T19:17:58.831Z,76.70
2018-12-06T19:20:27.651Z,77.21
2018-12-06T19:22:56.429Z,76.96
2018-12-06T19:25:24.956Z,76.86
2018-12-06T19:27:53.511Z,76.61
2018-12-06T19:30:22.795Z,76.97
2018-12-06T19:32:57.808Z,76.65
2018-12-06T19:35:23.076Z,76.98
2018-12-06T19:37:52.177Z,76.95
2018-12-06T19:40:20.976Z,77.03
2018-12-06T19:42:50.609Z,76.97
2018-12-06T19:45:19.653Z,76.89
2018-12-06T19:47:48.654Z,77.00
2018-12-06T19:50:17.991Z,77.46
2018-12-06T19:52:47.142Z,77.05
2018-12-06T19:55:16.871Z,77.32
2018-12-06T19:57:46.444Z,77.49
2018-12-06T20:00:15.431Z,77.20
2018-12-06T20:02:45.527Z,76.78
2018-12-06T20:05:14.878Z,76.80
2018-12-06T20:07:44.238Z,76.74
2018-12-06T20:10:14.051Z,77.43
2018-12-06T20:12:42.671Z,77.50
2018-12-06T20:15:11.315Z,77.78
2018-12-06T20:17:40.114Z,76.56
2018-12-06T20:20:08.994Z,76.88
2018-12-06T20:22:37.526Z,76.78
2018-12-06T20:25:06.608Z,76.56
2018-12-06T20:27:35.115Z,76.50
2018-12-06T20:30:04.570Z,76.89
2018-12-06T20:32:34.152Z,76.47
2018-12-06T20:35:03.603Z,76.20
2018-12-06T20:37:32.678Z,76.19
2018-12-06T20:40:01.232Z,76.23
2018-12-06T20:42:32.718Z,76.93
2018-12-06T20:45:02.610Z,77.02
2018-12-06T20:47:31.599Z,76.32
2018-12-06T20:50:00.208Z,76.26
2018-12-06T20:52:30.284Z,76.27
2018-12-06T20:54:58.839Z,76.54
2018-12-06T20:57:27.447Z,76.63
2018-12-06T20:59:57.259Z,76.34
2018-12-06T21:02:27.194Z,76.54
2018-12-06T21:04:56.763Z,76.88
2018-12-06T21:07:27.449Z,76.78
2018-12-06T21:09:57.712Z,76.80
2018-12-06T21:12:27.741Z,77.29
2018-12-06T21:14:57.711Z,77.06
2018-12-06T21:17:27.364Z,76.34
2018-12-06T21:19:56.913Z,76.52
2018-12-06T21:22:27.467Z,76.17
2018-12-06T21:24:56.100Z,76.36
2018-12-06T21:27:24.843Z,76.04
2018-12-06T21:29:54.897Z,75.73
2018-12-06T21:32:24.171Z,75.35
2018-12-06T21:34:52.797Z,75.04
2018-12-06T21:37:22.413Z,75.39
2018-12-06T21:39:50.974Z,74.99
2018-12-06T21:42:20.629Z,75.39
2018-12-06T21:44:53.075Z,75.72
2018-12-06T21:47:25.794Z,75.26
2018-12-06T21:49:55.651Z,74.89
2018-12-06T21:52:24.558Z,75.68
2018-12-06T21:54:55.639Z,75.60
2018-12-06T21:57:24.989Z,75.37
2018-12-06T21:59:53.562Z,75.00
2018-12-06T22:02:25.296Z,75.47
2018-12-06T22:04:54.602Z,75.67
2018-12-06T22:07:23.274Z,75.65
2018-12-06T22:09:51.774Z,75.60
2018-12-06T22:12:20.288Z,75.25
2018-12-06T22:14:48.871Z,74.85
2018-12-06T22:17:17.352Z,75.56
2018-12-06T22:19:45.955Z,75.10
2018-12-06T22:22:14.460Z,75.72
2018-12-06T22:24:44.999Z,75.48
2018-12-06T22:27:13.510Z,75.15
2018-12-06T22:29:42.648Z,74.46
2018-12-06T22:32:12.363Z,75.10
2018-12-06T22:34:41.622Z,75.18
2018-12-06T22:37:11.303Z,75.28
2018-12-06T22:39:40.212Z,75.07
2018-12-06T22:42:10.509Z,75.38
2018-12-06T22:44:40.165Z,75.91
2018-12-06T22:47:08.906Z,75.48
2018-12-06T22:49:39.152Z,75.59
2018-12-06T22:52:08.256Z,75.67
2018-12-06T22:54:36.797Z,75.76
2018-12-06T22:57:05.418Z,76.28
2018-12-06T22:59:34.121Z,75.82
2018-12-06T23:02:02.664Z,76.09
2018-12-06T23:04:33.982Z,75.02
2018-12-06T23:07:02.459Z,75.38
2018-12-06T23:09:31.089Z,75.57
2018-12-06T23:11:59.589Z,76.18
2018-12-06T23:14:28.177Z,76.02
2018-12-06T23:16:56.664Z,75.84
2018-12-06T23:19:25.279Z,75.28
2018-12-06T23:21:53.828Z,75.16
2018-12-06T23:24:22.470Z,75.87
2018-12-06T23:26:51.002Z,75.35
2018-12-06T23:29:19.506Z,76.21
2018-12-06T23:31:48.816Z,76.41
2018-12-06T23:34:17.452Z,76.16
2018-12-06T23:36:45.986Z,76.73
2018-12-06T23:39:14.575Z,77.16
2018-12-06T23:41:43.143Z,76.45
2018-12-06T23:44:11.694Z,76.70
2018-12-06T23:46:40.236Z,76.82
2018-12-06T23:49:08.779Z,77.12
2018-12-06T23:51:38.943Z,76.82
2018-12-06T23:54:07.452Z,77.04
2018-12-06T23:56:36.567Z,76.99
2018-12-06T23:59:05.219Z,76.76
